Time;durP1;ratioP1;P1;durP2;ratioP2;P2;SDS_P1;SDS_P2;PMS_P1;PMS_P2;Temp;Humidity;BMP_temperature;BMP_pressure;BME280_temperature;BME280_humidity;BME280_pressure;Samples;Min_cycle;Max_cycle;Signal;HPM_P1;HPM_P2
2023/07/08 00:00:58;;;;;;;427.10;412.77;;;15.40;99.90;;;;;;4948365;29;20185;-82
2023/07/08 00:03:24;;;;;;;447.67;432.30;;;15.30;99.90;;;;;;4932516;29;20218;-83
2023/07/08 00:05:53;;;;;;;439.27;424.33;;;15.30;99.90;;;;;;4953113;29;20591;-82
2023/07/08 00:08:21;;;;;;;445.60;430.73;;;15.30;99.90;;;;;;4952949;29;20323;-83
2023/07/08 00:10:47;;;;;;;446.30;431.27;;;15.20;99.90;;;;;;4952631;29;20546;-82
2023/07/08 00:13:12;;;;;;;443.20;428.63;;;15.20;99.90;;;;;;4935562;29;20332;-82
2023/07/08 00:15:40;;;;;;;448.97;433.53;;;15.10;99.90;;;;;;4952865;29;20665;-84
2023/07/08 00:18:17;;;;;;;447.40;432.73;;;15.10;99.90;;;;;;4951419;29;20643;-82
2023/07/08 00:20:48;;;;;;;425.93;411.87;;;15.10;99.90;;;;;;4935180;29;20165;-82
2023/07/08 00:23:15;;;;;;;449.37;434.37;;;15.00;99.90;;;;;;4935551;29;20202;-82
2023/07/08 00:25:41;;;;;;;431.00;416.53;;;15.00;99.90;;;;;;4935085;29;20181;-83
2023/07/08 00:28:16;;;;;;;439.20;424.40;;;15.00;99.90;;;;;;4935206;29;20178;-83
2023/07/08 00:30:42;;;;;;;451.07;435.80;;;14.90;99.90;;;;;;4952320;29;20272;-82
2023/07/08 00:33:08;;;;;;;436.40;421.67;;;14.90;99.90;;;;;;4935060;29;20761;-84
2023/07/08 00:35:37;;;;;;;425.33;411.13;;;14.90;99.90;;;;;;4950865;29;20182;-82
2023/07/08 00:38:19;;;;;;;431.43;417.30;;;14.80;99.90;;;;;;4952630;29;20192;-82
2023/07/08 00:40:51;;;;;;;423.30;409.23;;;14.60;99.90;;;;;;4935275;29;20169;-82
2023/07/08 00:43:19;;;;;;;421.67;407.77;;;14.60;99.90;;;;;;4934701;29;20312;-82
2023/07/08 00:45:51;;;;;;;407.47;393.70;;;14.60;99.90;;;;;;4950980;29;20190;-82
2023/07/08 00:48:28;;;;;;;438.17;423.43;;;14.60;99.90;;;;;;4934992;29;20170;-82
2023/07/08 00:50:54;;;;;;;431.97;417.87;;;14.60;99.90;;;;;;4934946;29;20442;-84
2023/07/08 00:53:32;;;;;;;451.67;436.63;;;14.60;99.90;;;;;;4951948;29;20268;-82
2023/07/08 00:56:00;;;;;;;418.87;405.07;;;14.70;99.90;;;;;;4934688;29;20177;-82
2023/07/08 00:58:37;;;;;;;431.57;417.20;;;14.70;99.90;;;;;;4950448;29;20185;-83
2023/07/08 01:01:05;;;;;;;447.80;432.57;;;14.80;99.90;;;;;;4950596;29;20365;-84
2023/07/08 01:03:36;;;;;;;423.80;409.73;;;14.80;99.90;;;;;;4950664;29;20236;-84
2023/07/08 01:06:03;;;;;;;443.33;428.33;;;14.90;99.90;;;;;;4952171;29;20260;-82
2023/07/08 01:08:30;;;;;;;460.40;444.93;;;14.90;99.90;;;;;;4934223;29;20177;-83
2023/07/08 01:11:01;;;;;;;429.83;415.43;;;14.90;99.90;;;;;;4934247;29;20439;-81
2023/07/08 01:13:31;;;;;;;449.80;434.10;;;14.90;99.90;;;;;;4934736;29;20178;-81
2023/07/08 01:15:57;;;;;;;435.93;421.23;;;14.90;99.90;;;;;;4934118;29;20216;-81
2023/07/08 01:18:25;;;;;;;436.30;421.73;;;14.80;99.90;;;;;;4934578;29;20177;-81
2023/07/08 01:20:55;;;;;;;417.87;403.63;;;14.70;99.90;;;;;;4934388;29;20188;-83
2023/07/08 01:23:22;;;;;;;439.80;425.17;;;14.70;99.90;;;;;;4951559;29;20217;-82
2023/07/08 01:25:48;;;;;;;416.67;403.07;;;14.70;99.90;;;;;;4950245;29;20181;-82
2023/07/08 01:28:15;;;;;;;447.63;433.10;;;14.70;99.90;;;;;;4950342;29;20253;-82
2023/07/08 01:30:43;;;;;;;426.67;412.70;;;14.70;99.90;;;;;;4949910;29;20695;-82
2023/07/08 01:33:17;;;;;;;435.83;419.43;;;14.70;99.90;;;;;;4951232;29;20529;-82
2023/07/08 01:35:44;;;;;;;437.07;422.83;;;14.70;99.90;;;;;;4934068;29;20310;-82
2023/07/08 01:38:13;;;;;;;416.90;402.97;;;14.70;99.90;;;;;;4934176;29;20199;-84
2023/07/08 01:40:50;;;;;;;417.17;403.60;;;14.80;99.90;;;;;;4933657;29;20185;-81
2023/07/08 01:43:16;;;;;;;416.97;403.13;;;14.90;99.90;;;;;;4933529;29;20237;-84
2023/07/08 01:45:42;;;;;;;431.43;416.70;;;14.90;99.90;;;;;;4949562;29;20188;-81
2023/07/08 01:48:12;;;;;;;436.53;422.43;;;15.00;99.90;;;;;;4949781;29;20270;-81
2023/07/08 01:50:49;;;;;;;410.10;396.43;;;15.00;99.90;;;;;;4950658;29;20710;-81
2023/07/08 01:53:22;;;;;;;417.23;403.20;;;15.10;99.90;;;;;;4950879;29;20177;-82
2023/07/08 01:55:48;;;;;;;396.83;384.07;;;15.10;99.90;;;;;;4950539;29;20196;-83
2023/07/08 01:58:14;;;;;;;432.10;417.97;;;15.20;99.90;;;;;;4918094;29;20632;-83
2023/07/08 02:00:39;;;;;;;406.40;392.93;;;15.10;99.90;;;;;;4933732;29;20244;-82
2023/07/08 02:03:05;;;;;;;398.77;385.63;;;15.10;99.90;;;;;;4950887;29;20350;-82
2023/07/08 02:05:31;;;;;;;408.07;394.67;;;15.20;99.90;;;;;;4933308;29;20185;-82
2023/07/08 02:07:57;;;;;;;410.47;396.90;;;15.30;99.90;;;;;;4933750;29;20182;-83
2023/07/08 02:10:25;;;;;;;401.17;388.40;;;15.30;99.90;;;;;;4933635;29;20549;-84
2023/07/08 02:12:50;;;;;;;411.80;398.40;;;15.30;99.90;;;;;;4918191;29;20217;-82
2023/07/08 02:15:16;;;;;;;400.20;386.87;;;15.30;99.90;;;;;;4933272;29;20268;-82
2023/07/08 02:17:43;;;;;;;411.27;397.90;;;15.20;99.90;;;;;;4917968;29;20619;-84
2023/07/08 02:20:09;;;;;;;396.50;383.23;;;15.20;99.90;;;;;;4933076;29;20244;-81
2023/07/08 02:22:36;;;;;;;383.80;371.40;;;15.20;99.90;;;;;;4933001;29;20221;-83
2023/07/08 02:25:02;;;;;;;412.97;399.40;;;15.20;99.90;;;;;;4933549;29;20200;-82
2023/07/08 02:27:28;;;;;;;394.13;381.50;;;15.20;99.90;;;;;;4932902;29;20632;-81
2023/07/08 02:29:54;;;;;;;401.47;388.57;;;15.20;99.90;;;;;;4917143;29;20209;-81
2023/07/08 02:32:19;;;;;;;396.13;383.17;;;15.20;99.90;;;;;;4933021;29;20193;-82
2023/07/08 02:34:45;;;;;;;399.00;385.83;;;15.30;99.90;;;;;;4932743;29;20272;-82
2023/07/08 02:37:11;;;;;;;403.63;390.27;;;15.20;99.90;;;;;;4932859;29;20221;-84
2023/07/08 02:39:36;;;;;;;400.17;387.27;;;15.20;99.90;;;;;;4950011;29;20196;-81
2023/07/08 02:42:02;;;;;;;405.93;392.67;;;15.20;99.90;;;;;;4917143;29;20244;-84
2023/07/08 02:44:28;;;;;;;379.80;367.07;;;15.20;99.90;;;;;;4932784;29;20248;-84
2023/07/08 02:46:54;;;;;;;401.30;388.30;;;15.20;99.90;;;;;;4932696;29;20185;-83
2023/07/08 02:49:20;;;;;;;381.60;369.13;;;15.20;99.90;;;;;;4949996;29;20212;-83
2023/07/08 02:51:45;;;;;;;410.73;396.90;;;15.20;99.90;;;;;;4932463;29;20182;-82
2023/07/08 02:54:11;;;;;;;385.63;372.57;;;15.20;99.90;;;;;;4916951;29;20613;-83
2023/07/08 02:56:37;;;;;;;381.63;369.00;;;15.10;99.90;;;;;;4932654;29;20192;-81
2023/07/08 02:59:02;;;;;;;402.40;389.43;;;15.10;99.90;;;;;;4916886;29;20635;-81
2023/07/08 03:01:28;;;;;;;386.13;373.57;;;15.00;99.90;;;;;;4932419;29;20280;-83
2023/07/08 03:04:00;;;;;;;400.20;387.23;;;15.00;99.90;;;;;;4932471;29;20346;-84
2023/07/08 03:06:25;;;;;;;386.00;373.47;;;15.00;99.90;;;;;;4933712;29;20189;-82
2023/07/08 03:08:51;;;;;;;365.57;353.87;;;15.00;99.90;;;;;;4949433;29;20198;-81
2023/07/08 03:11:17;;;;;;;416.17;402.90;;;15.00;99.90;;;;;;4916654;29;20273;-82
2023/07/08 03:13:43;;;;;;;380.40;368.27;;;15.00;99.90;;;;;;4932108;29;20283;-82
2023/07/08 03:16:12;;;;;;;378.87;366.47;;;15.00;99.90;;;;;;4916849;29;20177;-84
2023/07/08 03:18:45;;;;;;;377.83;365.30;;;15.00;99.90;;;;;;4933056;29;20186;-81
2023/07/08 03:21:13;;;;;;;385.77;373.40;;;15.00;99.90;;;;;;4932413;29;20638;-83
2023/07/08 03:23:39;;;;;;;392.77;379.97;;;15.00;99.90;;;;;;4948250;29;20201;-83
2023/07/08 03:26:04;;;;;;;393.37;380.33;;;15.00;99.90;;;;;;4932760;29;20194;-82
2023/07/08 03:28:30;;;;;;;390.27;377.60;;;15.00;99.90;;;;;;4916671;29;20591;-81
2023/07/08 03:30:56;;;;;;;403.90;390.63;;;15.10;99.90;;;;;;4916603;29;20185;-82
2023/07/08 03:33:22;;;;;;;361.03;349.40;;;15.10;99.90;;;;;;4932446;29;20191;-82
2023/07/08 03:35:49;;;;;;;388.40;375.97;;;15.10;99.90;;;;;;4916327;29;20272;-84
2023/07/08 03:38:14;;;;;;;391.17;378.30;;;15.00;99.90;;;;;;4916845;29;20228;-83
2023/07/08 03:40:40;;;;;;;394.77;381.60;;;15.00;99.90;;;;;;4920152;29;20647;-83
2023/07/08 03:43:06;;;;;;;365.43;353.63;;;15.00;99.90;;;;;;4951876;28;20527;-82
2023/07/08 03:45:31;;;;;;;398.10;384.73;;;15.00;99.90;;;;;;4935874;29;20220;-82
2023/07/08 03:47:57;;;;;;;381.43;369.30;;;15.00;99.90;;;;;;4936180;29;20185;-84
2023/07/08 03:50:27;;;;;;;378.17;366.13;;;15.00;99.90;;;;;;4952113;29;20298;-81
2023/07/08 03:52:54;;;;;;;395.20;382.17;;;15.10;99.90;;;;;;4935804;29;20189;-82
2023/07/08 03:55:21;;;;;;;379.23;366.77;;;15.20;99.90;;;;;;4935810;29;20271;-83
2023/07/08 03:57:47;;;;;;;400.73;387.80;;;15.20;99.90;;;;;;4951614;29;20177;-83
2023/07/08 04:00:14;;;;;;;384.67;371.47;;;15.30;99.90;;;;;;4935676;29;20644;-84
2023/07/08 04:02:44;;;;;;;383.13;370.47;;;15.30;99.90;;;;;;4935630;29;20295;-83
2023/07/08 04:05:21;;;;;;;385.63;373.00;;;15.30;99.90;;;;;;4951939;29;20182;-83
2023/07/08 04:07:48;;;;;;;389.00;376.43;;;15.40;99.90;;;;;;4935589;29;20224;-82
2023/07/08 04:10:14;;;;;;;403.23;390.03;;;15.40;99.90;;;;;;4951663;29;20204;-83
2023/07/08 04:12:40;;;;;;;387.10;374.63;;;15.50;99.90;;;;;;4935592;29;20182;-82
2023/07/08 04:15:09;;;;;;;416.43;402.40;;;15.50;99.90;;;;;;4935520;29;20647;-81
2023/07/08 04:17:46;;;;;;;419.03;405.50;;;15.50;99.90;;;;;;4935600;29;20186;-81
2023/07/08 04:20:18;;;;;;;395.23;382.33;;;15.50;99.90;;;;;;4935179;29;20255;-83
2023/07/08 04:22:44;;;;;;;401.13;388.30;;;15.70;99.90;;;;;;4951022;29;20213;-82
2023/07/08 04:25:12;;;;;;;406.73;392.83;;;15.80;99.90;;;;;;4951257;29;20225;-83
2023/07/08 04:27:39;;;;;;;430.17;415.40;;;15.80;99.90;;;;;;4951165;29;20181;-81
2023/07/08 04:30:05;;;;;;;440.20;425.30;;;15.90;99.90;;;;;;4951406;29;20236;-82
2023/07/08 04:32:31;;;;;;;420.60;406.17;;;15.90;99.90;;;;;;4951177;29;20313;-82
2023/07/08 04:34:57;;;;;;;430.13;416.03;;;16.00;99.90;;;;;;4914901;29;20181;-81
2023/07/08 04:37:23;;;;;;;429.60;415.33;;;16.00;99.90;;;;;;4951055;29;20186;-82
2023/07/08 04:39:48;;;;;;;440.43;425.80;;;16.10;99.90;;;;;;4950832;29;20659;-82
2023/07/08 04:42:17;;;;;;;438.37;423.47;;;16.20;99.90;;;;;;4950689;28;20233;-82
2023/07/08 04:44:44;;;;;;;447.13;431.73;;;16.20;99.90;;;;;;4950581;29;20201;-84
2023/07/08 04:47:13;;;;;;;432.70;418.27;;;16.40;99.90;;;;;;4951062;29;20666;-83
2023/07/08 04:49:41;;;;;;;442.90;428.37;;;16.40;99.90;;;;;;4951344;28;20186;-84
2023/07/08 04:52:07;;;;;;;430.63;416.13;;;16.50;99.90;;;;;;4951793;29;20209;-81
2023/07/08 04:54:32;;;;;;;424.97;410.57;;;16.60;99.90;;;;;;4950860;29;20656;-82
2023/07/08 04:56:58;;;;;;;420.13;406.00;;;16.70;99.90;;;;;;4934857;29;20642;-84
2023/07/08 04:59:25;;;;;;;435.57;421.17;;;16.80;99.90;;;;;;4934676;29;20177;-83
2023/07/08 05:01:52;;;;;;;433.83;419.27;;;16.90;99.90;;;;;;4918851;29;20182;-82
2023/07/08 05:04:20;;;;;;;434.17;419.70;;;17.00;99.90;;;;;;4951621;29;20221;-82
2023/07/08 05:06:46;;;;;;;424.43;410.40;;;17.10;99.90;;;;;;4950560;29;20190;-84
2023/07/08 05:09:12;;;;;;;460.97;445.43;;;17.20;99.90;;;;;;4934748;29;20186;-83
2023/07/08 05:11:38;;;;;;;454.47;439.40;;;17.30;99.90;;;;;;4934487;29;20524;-82
2023/07/08 05:14:04;;;;;;;436.77;422.27;;;17.40;99.90;;;;;;4934723;29;20189;-82
2023/07/08 05:16:33;;;;;;;464.53;449.20;;;17.50;99.90;;;;;;4934334;29;20575;-84
2023/07/08 05:18:59;;;;;;;450.07;435.20;;;17.60;99.90;;;;;;4934354;29;20212;-83
2023/07/08 05:21:27;;;;;;;439.20;424.80;;;17.80;99.90;;;;;;4934167;29;20280;-84
2023/07/08 05:23:53;;;;;;;455.43;440.17;;;18.80;99.90;;;;;;4933988;29;20202;-82
2023/07/08 05:26:19;;;;;;;445.30;430.63;;;19.80;99.90;;;;;;4951140;29;20324;-82
2023/07/08 05:28:45;;;;;;;452.97;438.37;;;19.50;99.90;;;;;;4950187;29;20666;-83
2023/07/08 05:31:11;;;;;;;405.97;392.67;;;19.90;99.90;;;;;;4950024;29;20193;-83
2023/07/08 05:33:37;;;;;;;373.77;362.00;;;21.40;99.90;;;;;;4951193;29;20181;-84
2023/07/08 05:36:03;;;;;;;305.37;296.30;;;22.00;99.90;;;;;;4918314;29;20657;-82
2023/07/08 05:38:29;;;;;;;262.03;254.20;;;22.60;99.90;;;;;;4949618;29;20639;-82
2023/07/08 05:40:56;;;;;;;224.27;217.67;;;23.00;99.90;;;;;;4949584;29;20189;-83
2023/07/08 05:43:22;;;;;;;215.50;208.87;;;23.50;99.90;;;;;;4933581;29;20358;-82
2023/07/08 05:45:48;;;;;;;190.93;185.00;;;23.90;99.90;;;;;;4951010;29;20756;-82
2023/07/08 05:48:14;;;;;;;190.17;184.23;;;24.10;99.90;;;;;;4950055;29;20543;-84
2023/07/08 05:50:40;;;;;;;188.20;182.50;;;24.00;99.90;;;;;;4949667;29;20247;-83
2023/07/08 05:53:09;;;;;;;170.37;165.03;;;24.10;99.90;;;;;;4917702;29;20725;-85
2023/07/08 05:55:35;;;;;;;190.40;184.10;;;24.60;99.90;;;;;;4933757;29;20185;-83
2023/07/08 05:58:01;;;;;;;200.35;194.27;;;24.30;99.90;;;;;;4933518;29;20181;-82
2023/07/08 06:00:30;;;;;;;204.00;197.80;;;24.50;99.90;;;;;;4949644;28;20662;-85
2023/07/08 06:02:58;;;;;;;210.57;204.00;;;25.60;99.90;;;;;;4932728;29;20210;-84
2023/07/08 06:05:24;;;;;;;207.93;201.57;;;26.10;99.90;;;;;;4949440;29;20185;-84
2023/07/08 06:07:50;;;;;;;237.00;230.02;;;26.20;99.90;;;;;;4949175;29;20189;-83
2023/07/08 06:10:16;;;;;;;232.57;225.40;;;26.20;99.90;;;;;;4933238;29;20189;-83
2023/07/08 06:12:41;;;;;;;227.55;220.82;;;26.30;99.90;;;;;;4932986;29;20185;-82
2023/07/08 06:15:07;;;;;;;251.18;243.65;;;25.90;99.90;;;;;;4949617;29;20181;-83
2023/07/08 06:17:33;;;;;;;239.35;232.00;;;26.00;99.90;;;;;;4932702;29;20245;-82
2023/07/08 06:19:59;;;;;;;237.73;230.82;;;26.40;99.90;;;;;;4948673;29;20369;-83
2023/07/08 06:22:25;;;;;;;245.15;238.10;;;26.40;99.90;;;;;;4949069;29;20186;-83
2023/07/08 06:24:50;;;;;;;227.50;220.65;;;25.80;99.90;;;;;;4933128;29;20205;-83
2023/07/08 06:27:16;;;;;;;221.25;214.52;;;25.70;99.90;;;;;;4950404;29;20186;-81
2023/07/08 06:29:42;;;;;;;220.60;213.90;;;25.90;99.90;;;;;;4948786;29;20342;-82
2023/07/08 06:32:08;;;;;;;230.57;223.52;;;26.30;99.90;;;;;;4949054;29;20264;-82
2023/07/08 06:34:34;;;;;;;226.32;219.63;;;26.00;99.90;;;;;;4949980;29;20659;-84
2023/07/08 06:37:00;;;;;;;213.95;207.65;;;26.30;99.90;;;;;;4932625;29;20181;-82
2023/07/08 06:39:26;;;;;;;208.30;202.07;;;25.90;99.90;;;;;;4948854;29;20248;-83
2023/07/08 06:41:51;;;;;;;204.60;198.50;;;25.60;99.90;;;;;;4948323;29;20276;-82
2023/07/08 06:44:17;;;;;;;212.30;205.98;;;26.10;99.90;;;;;;4949932;29;20221;-84
2023/07/08 06:46:43;;;;;;;200.93;194.93;;;26.00;99.90;;;;;;4948494;29;20182;-84
2023/07/08 06:49:09;;;;;;;202.60;196.45;;;25.10;99.90;;;;;;4932431;29;20178;-82
2023/07/08 06:51:35;;;;;;;209.68;203.25;;;25.10;99.90;;;;;;4948659;29;20190;-81
2023/07/08 06:54:10;;;;;;;217.38;210.82;;;25.50;99.90;;;;;;4932459;29;20269;-81
2023/07/08 06:56:41;;;;;;;202.45;196.48;;;25.20;99.90;;;;;;4932471;29;20379;-82
2023/07/08 06:59:08;;;;;;;209.80;203.50;;;25.50;99.90;;;;;;4932326;29;20193;-81
2023/07/08 07:01:34;;;;;;;209.57;203.23;;;26.00;99.90;;;;;;4932699;29;20264;-83
2023/07/08 07:04:01;;;;;;;197.52;191.52;;;26.70;99.90;;;;;;4948673;29;20316;-83
2023/07/08 07:06:27;;;;;;;187.20;181.30;;;26.50;99.90;;;;;;4948816;29;20185;-82
2023/07/08 07:08:52;;;;;;;173.60;168.32;;;27.10;99.90;;;;;;4949674;29;20236;-83
2023/07/08 07:11:19;;;;;;;180.77;175.35;;;26.20;99.90;;;;;;4948284;29;20224;-82
2023/07/08 07:13:45;;;;;;;185.10;179.35;;;26.10;99.90;;;;;;4948080;28;20204;-84
2023/07/08 07:16:11;;;;;;;177.38;172.10;;;26.20;99.90;;;;;;4932326;29;20330;-81
2023/07/08 07:18:37;;;;;;;176.30;170.68;;;26.10;99.90;;;;;;4948279;29;20190;-82
2023/07/08 07:21:03;;;;;;;190.55;184.52;;;25.70;99.90;;;;;;4932377;29;20186;-82
2023/07/08 07:23:29;;;;;;;200.43;194.38;;;25.80;99.90;;;;;;4916134;29;20240;-81
2023/07/08 07:25:54;;;;;;;191.40;185.70;;;25.90;99.90;;;;;;4916569;29;20181;-82
2023/07/08 07:28:20;;;;;;;201.10;195.00;;;26.10;99.90;;;;;;4932304;29;20643;-82
2023/07/08 07:30:56;;;;;;;196.98;191.05;;;26.00;99.90;;;;;;4916443;29;20590;-83
2023/07/08 07:33:22;;;;;;;193.35;187.55;;;26.00;99.90;;;;;;4932415;29;20268;-81
2023/07/08 07:35:48;;;;;;;191.52;185.82;;;26.00;99.90;;;;;;4916562;29;20264;-82
2023/07/08 07:38:15;;;;;;;195.65;189.73;;;25.70;99.90;;;;;;4932120;29;20558;-82
2023/07/08 07:40:41;;;;;;;198.07;192.32;;;25.80;99.90;;;;;;4948431;29;20181;-81
2023/07/08 07:43:07;;;;;;;176.50;171.20;;;26.20;99.90;;;;;;4949249;29;20352;-83
2023/07/08 07:45:33;;;;;;;202.00;195.98;;;26.20;99.90;;;;;;4916553;29;20281;-84
2023/07/08 07:47:58;;;;;;;203.07;196.50;;;25.90;99.90;;;;;;4932016;29;20699;-82
2023/07/08 07:50:24;;;;;;;197.63;191.82;;;25.90;99.90;;;;;;4932231;29;20213;-81
2023/07/08 07:52:50;;;;;;;204.25;198.15;;;26.00;99.90;;;;;;4948294;29;20193;-83
2023/07/08 07:55:16;;;;;;;203.95;198.02;;;26.50;99.90;;;;;;4948015;29;20186;-82
2023/07/08 07:57:41;;;;;;;198.18;192.25;;;27.10;99.90;;;;;;4932293;29;20182;-82
2023/07/08 08:00:09;;;;;;;189.10;183.52;;;27.10;99.90;;;;;;4931957;29;20189;-82
2023/07/08 08:02:35;;;;;;;196.25;190.32;;;26.90;99.90;;;;;;4932120;29;20636;-81
2023/07/08 08:05:01;;;;;;;200.40;194.45;;;27.10;99.90;;;;;;4947750;29;20189;-82
2023/07/08 08:07:26;;;;;;;197.20;191.23;;;27.30;99.90;;;;;;4931949;29;20212;-82
2023/07/08 08:09:52;;;;;;;203.73;197.55;;;27.40;99.90;;;;;;4947818;29;20321;-81
2023/07/08 08:12:18;;;;;;;197.05;191.30;;;27.30;99.90;;;;;;4949565;29;20623;-82
2023/07/08 08:14:44;;;;;;;200.55;194.73;;;27.10;99.90;;;;;;4948986;29;20345;-81
2023/07/08 08:17:09;;;;;;;193.68;188.00;;;27.30;99.90;;;;;;4947537;29;20555;-81
2023/07/08 08:19:35;;;;;;;202.43;196.48;;;27.30;99.90;;;;;;4947480;29;20275;-81
2023/07/08 08:22:01;;;;;;;221.15;214.68;;;27.20;99.90;;;;;;4931526;29;20178;-82
2023/07/08 08:24:27;;;;;;;202.57;196.63;;;27.20;99.90;;;;;;4932009;29;20224;-82
2023/07/08 08:26:52;;;;;;;206.43;200.45;;;27.20;99.90;;;;;;4951091;29;20185;-82
2023/07/08 08:29:18;;;;;;;207.40;201.30;;;27.60;99.90;;;;;;4951165;29;20185;-83
2023/07/08 08:31:44;;;;;;;206.55;200.43;;;27.90;99.90;;;;;;4934457;29;20534;-82
2023/07/08 08:34:10;;;;;;;205.73;199.52;;;27.80;99.90;;;;;;4950596;29;20587;-82
2023/07/08 08:36:35;;;;;;;204.15;198.05;;;27.30;99.90;;;;;;4952212;29;20280;-82
2023/07/08 08:39:01;;;;;;;214.07;207.90;;;27.40;99.90;;;;;;4934632;29;20189;-83
2023/07/08 08:41:32;;;;;;;219.85;213.52;;;27.70;99.90;;;;;;4919051;29;20708;-81
2023/07/08 08:43:59;;;;;;;217.77;211.50;;;27.60;99.90;;;;;;4934410;29;20674;-82
2023/07/08 08:46:53;;;;;;;213.32;207.10;;;27.60;99.90;;;;;;4950302;29;20260;-82
2023/07/08 08:49:50;;;;;;;197.38;191.45;;;27.80;99.90;;;;;;4930855;29;20198;-82
2023/07/08 08:52:16;;;;;;;210.38;204.23;;;28.20;99.90;;;;;;4950811;29;20193;-83
2023/07/08 08:54:43;;;;;;;227.80;221.05;;;28.20;99.90;;;;;;4934192;29;20181;-83
2023/07/08 08:57:19;;;;;;;223.80;217.35;;;27.80;99.90;;;;;;4951587;29;20368;-82
2023/07/08 08:59:54;;;;;;;202.20;196.30;;;27.40;99.90;;;;;;4950326;29;20256;-82
2023/07/08 09:02:42;;;;;;;208.95;202.73;;;27.80;99.90;;;;;;4934086;29;20232;-83
2023/07/08 09:05:10;;;;;;;212.65;206.32;;;28.10;99.90;;;;;;4934149;29;20328;-82
2023/07/08 09:07:56;;;;;;;204.63;198.65;;;28.20;99.90;;;;;;4934143;29;20272;-82
2023/07/08 09:10:30;;;;;;;209.15;203.00;;;28.10;99.90;;;;;;4949595;29;20170;-82
2023/07/08 09:12:57;;;;;;;213.82;207.48;;;28.60;99.90;;;;;;4950175;29;20190;-83
2023/07/08 09:15:26;;;;;;;211.05;205.05;;;28.70;99.90;;;;;;4951058;29;20253;-82
2023/07/08 09:17:57;;;;;;;213.85;207.65;;;28.50;99.90;;;;;;4950220;29;20252;-82
2023/07/08 09:20:28;;;;;;;200.05;194.23;;;28.40;99.90;;;;;;4951417;29;20245;-83
2023/07/08 09:22:57;;;;;;;200.18;194.13;;;28.30;99.90;;;;;;4951138;29;20300;-83
2023/07/08 09:25:26;;;;;;;213.13;206.82;;;28.40;99.90;;;;;;4951512;29;20216;-82
2023/07/08 09:27:51;;;;;;;199.00;193.10;;;28.90;99.90;;;;;;4949797;29;20639;-81
2023/07/08 09:30:20;;;;;;;219.93;213.60;;;28.90;99.90;;;;;;4933975;29;20177;-83
2023/07/08 09:32:47;;;;;;;221.40;215.02;;;28.80;99.90;;;;;;4951001;29;20244;-82
2023/07/08 09:35:28;;;;;;;220.00;213.65;;;28.60;99.90;;;;;;4933985;28;20181;-83
2023/07/08 09:37:55;;;;;;;223.77;217.20;;;28.60;99.90;;;;;;4950496;29;20268;-82
2023/07/08 09:40:34;;;;;;;223.85;217.48;;;28.70;99.90;;;;;;4950989;29;20188;-82
2023/07/08 09:43:38;;;;;;;224.30;217.77;;;28.80;99.90;;;;;;4950573;29;20237;-82
2023/07/08 09:46:04;;;;;;;219.20;212.70;;;28.90;99.90;;;;;;4933661;29;20181;-83
2023/07/08 09:48:35;;;;;;;229.05;222.32;;;28.90;99.90;;;;;;4951512;29;20174;-83
2023/07/08 09:51:02;;;;;;;245.75;238.75;;;28.70;99.90;;;;;;4950946;29;20181;-83
2023/07/08 09:53:28;;;;;;;263.17;255.23;;;28.70;99.90;;;;;;4950666;29;20181;-82
2023/07/08 09:55:58;;;;;;;238.43;231.57;;;28.20;99.90;;;;;;4917763;29;20508;-83
2023/07/08 09:58:25;;;;;;;235.98;229.27;;;28.30;99.90;;;;;;4933573;29;20169;-83
2023/07/08 10:00:57;;;;;;;232.68;226.00;;;28.30;99.90;;;;;;4933310;29;20178;-83
2023/07/08 10:03:31;;;;;;;228.13;221.68;;;28.80;99.90;;;;;;4950585;29;20209;-83
2023/07/08 10:06:00;;;;;;;225.95;219.10;;;29.30;99.90;;;;;;4950478;29;20477;-82
2023/07/08 10:08:42;;;;;;;238.85;231.82;;;29.30;99.90;;;;;;4933450;29;20208;-84
2023/07/08 10:11:17;;;;;;;224.93;218.45;;;29.10;99.90;;;;;;4950412;29;20257;-84
2023/07/08 10:13:49;;;;;;;232.35;225.57;;;29.20;99.90;;;;;;4949081;29;20180;-82
2023/07/08 10:16:31;;;;;;;234.27;227.45;;;29.10;99.90;;;;;;4949123;29;20170;-83
2023/07/08 10:18:57;;;;;;;238.93;232.23;;;29.20;99.90;;;;;;4933042;29;20705;-82
2023/07/08 10:21:50;;;;;;;217.68;211.38;;;29.00;99.90;;;;;;4933537;29;20182;-82
2023/07/08 10:24:22;;;;;;;241.95;235.07;;;29.10;99.90;;;;;;4933214;29;20216;-82
2023/07/08 10:26:57;;;;;;;245.68;238.65;;;29.10;99.90;;;;;;4948845;29;20182;-82
2023/07/08 10:29:49;;;;;;;238.57;231.70;;;29.10;99.90;;;;;;4950070;29;20216;-82
2023/07/08 10:33:08;;;;;;;251.55;244.25;;;29.10;99.90;;;;;;4950269;29;20169;-82
2023/07/08 10:35:36;;;;;;;226.38;219.75;;;29.30;99.90;;;;;;4908536;29;20245;-82
2023/07/08 10:38:05;;;;;;;226.38;219.90;;;29.00;99.90;;;;;;4933262;29;20237;-82
2023/07/08 10:40:48;;;;;;;238.82;231.95;;;29.10;99.90;;;;;;4948604;29;20653;-82
2023/07/08 10:43:35;;;;;;;250.20;243.10;;;29.00;99.90;;;;;;4932745;29;20233;-82
2023/07/08 10:46:07;;;;;;;241.48;234.57;;;29.00;99.90;;;;;;4950472;29;20182;-82
2023/07/08 10:48:51;;;;;;;241.95;234.70;;;29.00;99.90;;;;;;4949709;28;20174;-82
2023/07/08 10:51:33;;;;;;;249.88;242.65;;;28.90;99.90;;;;;;4948677;29;20651;-83
2023/07/08 10:54:20;;;;;;;285.02;276.65;;;29.10;99.90;;;;;;4932415;29;20268;-82
2023/07/08 10:57:24;;;;;;;255.57;248.10;;;29.00;99.90;;;;;;4950044;29;20579;-83
2023/07/08 11:00:23;;;;;;;232.63;225.80;;;29.00;99.90;;;;;;4919476;29;20225;-82
2023/07/08 11:03:30;;;;;;;251.20;244.15;;;29.00;99.90;;;;;;4950141;29;20170;-83
2023/07/08 11:06:15;;;;;;;245.48;238.32;;;28.70;99.90;;;;;;4932911;29;20212;-81
2023/07/08 11:09:04;;;;;;;249.15;242.00;;;28.80;99.90;;;;;;4949662;29;20177;-82
2023/07/08 11:11:40;;;;;;;254.75;247.23;;;28.90;99.90;;;;;;4932546;29;20694;-83
2023/07/08 11:14:21;;;;;;;246.50;239.30;;;29.00;99.90;;;;;;4949994;29;20177;-82
2023/07/08 11:16:52;;;;;;;257.63;250.32;;;28.90;99.90;;;;;;4932492;29;20243;-82
2023/07/08 11:19:40;;;;;;;268.33;260.67;;;28.70;99.90;;;;;;4949581;29;20174;-82
2023/07/08 11:22:11;;;;;;;268.20;260.48;;;28.90;99.90;;;;;;4949972;29;20209;-81
2023/07/08 11:24:36;;;;;;;241.18;234.32;;;29.10;99.90;;;;;;4949783;29;20212;-82
2023/07/08 11:27:14;;;;;;;259.73;252.00;;;28.90;99.90;;;;;;4948103;29;20178;-81
2023/07/08 11:29:42;;;;;;;248.88;241.80;;;29.20;99.90;;;;;;4949838;29;20181;-82
2023/07/08 11:32:13;;;;;;;264.83;257.33;;;29.10;99.90;;;;;;4932474;29;20299;-82
2023/07/08 11:34:42;;;;;;;232.63;225.98;;;29.10;99.90;;;;;;4932680;29;20173;-81
2023/07/08 11:37:09;;;;;;;252.13;244.95;;;29.10;99.90;;;;;;4932351;29;20615;-82
2023/07/08 11:39:43;;;;;;;256.55;249.30;;;29.10;99.90;;;;;;4948463;29;20209;-82
2023/07/08 11:42:23;;;;;;;257.75;250.27;;;29.00;99.90;;;;;;4949259;29;20244;-81
2023/07/08 11:44:56;;;;;;;251.43;244.25;;;29.20;99.90;;;;;;4949323;29;20714;-81
2023/07/08 11:47:40;;;;;;;285.50;277.35;;;29.10;99.90;;;;;;4932236;29;20178;-81
2023/07/08 11:50:29;;;;;;;258.42;250.98;;;29.30;99.90;;;;;;4932386;29;20173;-81
2023/07/08 11:53:06;;;;;;;249.10;241.82;;;29.30;99.90;;;;;;4932503;29;20173;-82
2023/07/08 11:55:56;;;;;;;250.63;243.45;;;29.10;99.90;;;;;;4949147;29;20177;-82
2023/07/08 11:58:48;;;;;;;245.27;238.32;;;29.20;99.90;;;;;;4905951;28;20549;-83
2023/07/08 12:01:22;;;;;;;259.55;252.07;;;29.10;99.90;;;;;;4952438;29;20253;-83
2023/07/08 12:03:51;;;;;;;238.27;231.30;;;29.20;99.90;;;;;;4952799;29;20201;-83
2023/07/08 12:06:26;;;;;;;256.95;249.60;;;29.20;99.90;;;;;;4935803;29;20470;-82
2023/07/08 12:08:57;;;;;;;237.57;230.50;;;29.30;99.90;;;;;;4951641;29;20180;-83
2023/07/08 12:11:35;;;;;;;264.77;257.13;;;29.30;99.90;;;;;;4934949;29;20181;-83
2023/07/08 12:14:03;;;;;;;268.52;260.83;;;29.50;99.90;;;;;;4952832;29;20185;-83
2023/07/08 12:16:31;;;;;;;292.92;284.30;;;29.70;99.90;;;;;;4935497;29;20185;-84
2023/07/08 12:18:59;;;;;;;237.40;230.48;;;29.60;99.90;;;;;;4950590;29;20620;-83
2023/07/08 12:21:27;;;;;;;258.58;251.07;;;29.50;99.90;;;;;;4934958;29;20177;-84